Hauptseite
METAR-TAF:

METAR-TAF

Flughäfen :

Flughafen Frankfurt-Hahn

Hahn, Deutschland

Breite: 49-57N, Länge: 007-16E, Höhe: 491 m

Beobachtung

Neuester Wetterbericht von vor 1 Stunde und 1 Minuten, um 03:20 UTC
Wind 3 kt aus West/Nordwest
Temperatur 5°C
Luftfeuchtigkeit 100%
Luftdruck 1014 hPa
Sichtweite: 0600 m
Durchbrochene Bewölkung in der Höhe von 200 ft
Nebel

METAR: EDFH 290320Z 29003KT 0600 R21/0900N FG BKN002 05/05 Q1014

Zeit: 05:21 (04:21 UTC)

Prognose

Neuester Wetterbericht von vor 5 Stunden und 21 Minuten, um 23:00 UTC
Gültige Prognose vom 29 um 00 UTC bis 29 um 24 UTC
Wind 4 kt aus West/Nordwest
Sichtweite: 2500 m
Geschlossene Wolkendecke in der Höhe von 300 ft
feuchter Dunst
Zeitweise
vom 29 um 00 UTC bis 29 um 11 UTC
Sichtweite: 0100 m
in der Höhe weniger als 100 ft
Regen, Sprühregen, Nebel

TAF: EDFH 282300Z 2900/2924 29004KT 2500 BR OVC003 TEMPO 2900/2911 0100 RADZ FG VV000

Wetterbeobachtungen und Prognosen von mehr als 4000 Flughäfen (METAR und TAF Bericht).

Die verfügbaren Stationen werden durch gelbe und rote Markierungen auf der Karte dargestellt.

Führen Sie die Maus auf sie, um den Namen der Station zu sehen.

Darauf klicken, um die Beobachtung von Wetterbeobachtungen und Prognosen zu sehen.

Um die Karte zu ändern : klicken Sie auf den grünen Tasten mit einem schwarzen Kreuz Zum Vergrößern, auf den grünen Button mit einem Gedankenstrich zu verkleinern, oder auf die grünen Pfeile für benachbarte Karten.


METAR-TAF: